sensor_id;sensor_type;location;lat;lon;timestamp;P1;durP1;ratioP1;P2;durP2;ratioP2
8831;SDS011;4452;50.756;4.472;2022-07-06T00:01:39;6.25;;;2.60;;
8831;SDS011;4452;50.756;4.472;2022-07-06T00:04:05;9.10;;;2.60;;
8831;SDS011;4452;50.756;4.472;2022-07-06T00:06:31;8.02;;;2.47;;
8831;SDS011;4452;50.756;4.472;2022-07-06T00:08:57;4.82;;;2.53;;
8831;SDS011;4452;50.756;4.472;2022-07-06T00:11:23;2.45;;;2.25;;
8831;SDS011;4452;50.756;4.472;2022-07-06T00:13:49;2.42;;;2.22;;
8831;SDS011;4452;50.756;4.472;2022-07-06T00:16:16;3.10;;;2.22;;
8831;SDS011;4452;50.756;4.472;2022-07-06T00:18:42;4.60;;;2.40;;
8831;SDS011;4452;50.756;4.472;2022-07-06T00:21:07;9.43;;;3.22;;
8831;SDS011;4452;50.756;4.472;2022-07-06T00:23:33;3.83;;;2.42;;
8831;SDS011;4452;50.756;4.472;2022-07-06T00:25:59;3.85;;;2.30;;
8831;SDS011;4452;50.756;4.472;2022-07-06T00:28:24;9.55;;;3.00;;
8831;SDS011;4452;50.756;4.472;2022-07-06T00:30:50;5.22;;;2.70;;
8831;SDS011;4452;50.756;4.472;2022-07-06T00:33:16;7.68;;;2.63;;
8831;SDS011;4452;50.756;4.472;2022-07-06T00:35:42;8.00;;;2.67;;
8831;SDS011;4452;50.756;4.472;2022-07-06T00:38:07;4.18;;;2.20;;
8831;SDS011;4452;50.756;4.472;2022-07-06T00:40:33;5.45;;;2.70;;
8831;SDS011;4452;50.756;4.472;2022-07-06T00:42:59;4.68;;;2.78;;
8831;SDS011;4452;50.756;4.472;2022-07-06T00:45:24;5.72;;;2.70;;
8831;SDS011;4452;50.756;4.472;2022-07-06T00:47:50;7.93;;;2.90;;
8831;SDS011;4452;50.756;4.472;2022-07-06T00:50:16;2.47;;;2.28;;
8831;SDS011;4452;50.756;4.472;2022-07-06T00:52:46;5.78;;;3.03;;
8831;SDS011;4452;50.756;4.472;2022-07-06T00:55:13;4.95;;;2.63;;
8831;SDS011;4452;50.756;4.472;2022-07-06T00:57:40;6.05;;;2.80;;
8831;SDS011;4452;50.756;4.472;2022-07-06T01:00:08;3.55;;;2.80;;
8831;SDS011;4452;50.756;4.472;2022-07-06T01:02:35;3.85;;;2.72;;
8831;SDS011;4452;50.756;4.472;2022-07-06T01:05:03;11.15;;;2.92;;
8831;SDS011;4452;50.756;4.472;2022-07-06T01:07:30;6.78;;;2.85;;
8831;SDS011;4452;50.756;4.472;2022-07-06T01:09:56;5.82;;;3.08;;
8831;SDS011;4452;50.756;4.472;2022-07-06T01:12:22;4.72;;;3.10;;
8831;SDS011;4452;50.756;4.472;2022-07-06T01:14:48;3.65;;;2.70;;
8831;SDS011;4452;50.756;4.472;2022-07-06T01:17:15;4.70;;;2.83;;
8831;SDS011;4452;50.756;4.472;2022-07-06T01:19:42;6.93;;;2.80;;
8831;SDS011;4452;50.756;4.472;2022-07-06T01:22:08;6.18;;;2.67;;
8831;SDS011;4452;50.756;4.472;2022-07-06T01:24:35;7.57;;;2.80;;
8831;SDS011;4452;50.756;4.472;2022-07-06T01:27:01;4.15;;;3.05;;
8831;SDS011;4452;50.756;4.472;2022-07-06T01:29:28;6.25;;;3.00;;
8831;SDS011;4452;50.756;4.472;2022-07-06T01:31:54;7.60;;;3.47;;
8831;SDS011;4452;50.756;4.472;2022-07-06T01:34:21;5.80;;;3.38;;
8831;SDS011;4452;50.756;4.472;2022-07-06T01:36:46;3.42;;;2.80;;
8831;SDS011;4452;50.756;4.472;2022-07-06T01:39:12;5.30;;;3.28;;
8831;SDS011;4452;50.756;4.472;2022-07-06T01:41:38;3.50;;;2.58;;
8831;SDS011;4452;50.756;4.472;2022-07-06T01:44:04;5.68;;;3.20;;
8831;SDS011;4452;50.756;4.472;2022-07-06T01:46:31;9.07;;;3.08;;
8831;SDS011;4452;50.756;4.472;2022-07-06T01:48:57;5.10;;;3.30;;
8831;SDS011;4452;50.756;4.472;2022-07-06T01:51:23;3.17;;;2.88;;
8831;SDS011;4452;50.756;4.472;2022-07-06T01:53:49;6.53;;;2.83;;
8831;SDS011;4452;50.756;4.472;2022-07-06T01:56:16;3.85;;;2.65;;
8831;SDS011;4452;50.756;4.472;2022-07-06T01:58:44;7.00;;;3.10;;
8831;SDS011;4452;50.756;4.472;2022-07-06T02:01:11;10.68;;;2.85;;
8831;SDS011;4452;50.756;4.472;2022-07-06T02:03:38;4.18;;;3.03;;
8831;SDS011;4452;50.756;4.472;2022-07-06T02:06:04;4.18;;;3.00;;
8831;SDS011;4452;50.756;4.472;2022-07-06T02:08:31;5.22;;;3.10;;
8831;SDS011;4452;50.756;4.472;2022-07-06T02:10:57;6.05;;;2.90;;
8831;SDS011;4452;50.756;4.472;2022-07-06T02:13:23;4.20;;;3.00;;
8831;SDS011;4452;50.756;4.472;2022-07-06T02:15:49;4.13;;;3.10;;
8831;SDS011;4452;50.756;4.472;2022-07-06T02:18:14;4.30;;;3.22;;
8831;SDS011;4452;50.756;4.472;2022-07-06T02:20:40;3.63;;;3.10;;
8831;SDS011;4452;50.756;4.472;2022-07-06T02:23:06;5.32;;;2.80;;
8831;SDS011;4452;50.756;4.472;2022-07-06T02:25:32;4.90;;;3.10;;
8831;SDS011;4452;50.756;4.472;2022-07-06T02:27:57;3.83;;;3.00;;
8831;SDS011;4452;50.756;4.472;2022-07-06T02:30:23;6.13;;;3.15;;
8831;SDS011;4452;50.756;4.472;2022-07-06T02:32:49;5.43;;;3.10;;
8831;SDS011;4452;50.756;4.472;2022-07-06T02:35:15;4.15;;;3.42;;
8831;SDS011;4452;50.756;4.472;2022-07-06T02:37:40;7.75;;;3.20;;
8831;SDS011;4452;50.756;4.472;2022-07-06T02:40:06;5.50;;;3.20;;
8831;SDS011;4452;50.756;4.472;2022-07-06T02:42:33;4.22;;;3.30;;
8831;SDS011;4452;50.756;4.472;2022-07-06T02:44:58;4.40;;;3.30;;
8831;SDS011;4452;50.756;4.472;2022-07-06T02:47:24;6.07;;;3.10;;
8831;SDS011;4452;50.756;4.472;2022-07-06T02:49:51;5.75;;;3.10;;
8831;SDS011;4452;50.756;4.472;2022-07-06T02:52:17;11.07;;;4.15;;
8831;SDS011;4452;50.756;4.472;2022-07-06T02:54:43;8.82;;;3.50;;
8831;SDS011;4452;50.756;4.472;2022-07-06T02:57:09;6.38;;;3.13;;
8831;SDS011;4452;50.756;4.472;2022-07-06T02:59:35;4.18;;;3.22;;
8831;SDS011;4452;50.756;4.472;2022-07-06T03:02:03;3.63;;;3.17;;
8831;SDS011;4452;50.756;4.472;2022-07-06T03:04:29;6.30;;;3.30;;
8831;SDS011;4452;50.756;4.472;2022-07-06T03:06:55;7.07;;;3.90;;
8831;SDS011;4452;50.756;4.472;2022-07-06T03:09:21;8.68;;;4.00;;
8831;SDS011;4452;50.756;4.472;2022-07-06T03:11:47;4.72;;;3.83;;
8831;SDS011;4452;50.756;4.472;2022-07-06T03:14:12;7.43;;;4.43;;
8831;SDS011;4452;50.756;4.472;2022-07-06T03:16:38;7.45;;;3.90;;
8831;SDS011;4452;50.756;4.472;2022-07-06T03:19:04;6.55;;;3.75;;
8831;SDS011;4452;50.756;4.472;2022-07-06T03:21:29;8.80;;;3.92;;
8831;SDS011;4452;50.756;4.472;2022-07-06T03:23:55;9.35;;;4.15;;
8831;SDS011;4452;50.756;4.472;2022-07-06T03:26:21;5.93;;;4.00;;
8831;SDS011;4452;50.756;4.472;2022-07-06T03:28:47;9.48;;;3.88;;
8831;SDS011;4452;50.756;4.472;2022-07-06T03:31:12;6.18;;;4.28;;
8831;SDS011;4452;50.756;4.472;2022-07-06T03:33:38;6.25;;;3.60;;
8831;SDS011;4452;50.756;4.472;2022-07-06T03:36:04;5.28;;;3.80;;
8831;SDS011;4452;50.756;4.472;2022-07-06T03:38:30;11.68;;;5.13;;
8831;SDS011;4452;50.756;4.472;2022-07-06T03:40:56;7.78;;;3.90;;
8831;SDS011;4452;50.756;4.472;2022-07-06T03:43:21;6.72;;;3.92;;
8831;SDS011;4452;50.756;4.472;2022-07-06T03:45:47;9.65;;;5.03;;
8831;SDS011;4452;50.756;4.472;2022-07-06T03:48:13;9.18;;;4.80;;
8831;SDS011;4452;50.756;4.472;2022-07-06T03:50:38;6.60;;;4.38;;
8831;SDS011;4452;50.756;4.472;2022-07-06T03:53:04;8.90;;;4.70;;
8831;SDS011;4452;50.756;4.472;2022-07-06T03:55:30;9.60;;;4.47;;
8831;SDS011;4452;50.756;4.472;2022-07-06T03:57:56;10.10;;;4.45;;
8831;SDS011;4452;50.756;4.472;2022-07-06T04:00:21;12.57;;;4.80;;
8831;SDS011;4452;50.756;4.472;2022-07-06T04:02:47;6.32;;;4.35;;
8831;SDS011;4452;50.756;4.472;2022-07-06T04:05:13;4.25;;;3.72;;
8831;SDS011;4452;50.756;4.472;2022-07-06T04:07:39;6.72;;;3.25;;
8831;SDS011;4452;50.756;4.472;2022-07-06T04:10:04;4.05;;;3.67;;
8831;SDS011;4452;50.756;4.472;2022-07-06T04:12:31;7.40;;;3.92;;
8831;SDS011;4452;50.756;4.472;2022-07-06T04:14:57;5.63;;;3.33;;
8831;SDS011;4452;50.756;4.472;2022-07-06T04:17:23;7.57;;;3.78;;
8831;SDS011;4452;50.756;4.472;2022-07-06T04:20:08;8.50;;;4.00;;
8831;SDS011;4452;50.756;4.472;2022-07-06T04:22:36;7.18;;;3.97;;
8831;SDS011;4452;50.756;4.472;2022-07-06T04:25:03;5.35;;;4.00;;
8831;SDS011;4452;50.756;4.472;2022-07-06T04:27:29;7.30;;;3.88;;
8831;SDS011;4452;50.756;4.472;2022-07-06T04:29:55;10.60;;;3.92;;
8831;SDS011;4452;50.756;4.472;2022-07-06T04:32:21;4.30;;;3.15;;
8831;SDS011;4452;50.756;4.472;2022-07-06T04:34:46;7.93;;;3.80;;
8831;SDS011;4452;50.756;4.472;2022-07-06T04:37:12;4.38;;;3.60;;
8831;SDS011;4452;50.756;4.472;2022-07-06T04:39:38;8.07;;;3.30;;
8831;SDS011;4452;50.756;4.472;2022-07-06T04:42:03;4.70;;;3.15;;
8831;SDS011;4452;50.756;4.472;2022-07-06T04:44:29;4.30;;;3.53;;
8831;SDS011;4452;50.756;4.472;2022-07-06T04:46:55;6.70;;;3.20;;
8831;SDS011;4452;50.756;4.472;2022-07-06T04:49:20;3.92;;;3.20;;
8831;SDS011;4452;50.756;4.472;2022-07-06T04:51:46;6.43;;;3.65;;
8831;SDS011;4452;50.756;4.472;2022-07-06T04:54:12;7.10;;;3.63;;
8831;SDS011;4452;50.756;4.472;2022-07-06T04:56:37;5.70;;;3.90;;
8831;SDS011;4452;50.756;4.472;2022-07-06T04:59:04;3.58;;;3.13;;
8831;SDS011;4452;50.756;4.472;2022-07-06T05:01:30;3.97;;;3.58;;
8831;SDS011;4452;50.756;4.472;2022-07-06T05:03:56;4.40;;;3.42;;
8831;SDS011;4452;50.756;4.472;2022-07-06T05:06:21;4.97;;;3.55;;
8831;SDS011;4452;50.756;4.472;2022-07-06T05:08:47;4.10;;;3.67;;
8831;SDS011;4452;50.756;4.472;2022-07-06T05:11:13;4.40;;;3.53;;
8831;SDS011;4452;50.756;4.472;2022-07-06T05:13:39;4.45;;;3.83;;
8831;SDS011;4452;50.756;4.472;2022-07-06T05:16:04;9.85;;;3.90;;
8831;SDS011;4452;50.756;4.472;2022-07-06T05:18:30;6.43;;;4.30;;
8831;SDS011;4452;50.756;4.472;2022-07-06T05:20:56;6.40;;;4.20;;
8831;SDS011;4452;50.756;4.472;2022-07-06T05:23:21;8.05;;;4.20;;
8831;SDS011;4452;50.756;4.472;2022-07-06T05:25:47;6.57;;;3.90;;
8831;SDS011;4452;50.756;4.472;2022-07-06T05:28:13;8.55;;;4.30;;
8831;SDS011;4452;50.756;4.472;2022-07-06T05:30:38;3.65;;;3.30;;
8831;SDS011;4452;50.756;4.472;2022-07-06T05:33:04;8.55;;;3.53;;
8831;SDS011;4452;50.756;4.472;2022-07-06T05:35:29;6.88;;;3.50;;
8831;SDS011;4452;50.756;4.472;2022-07-06T05:37:55;5.22;;;3.33;;
8831;SDS011;4452;50.756;4.472;2022-07-06T05:40:21;3.25;;;3.05;;
8831;SDS011;4452;50.756;4.472;2022-07-06T05:42:47;4.85;;;3.08;;
8831;SDS011;4452;50.756;4.472;2022-07-06T05:45:12;6.10;;;3.55;;
8831;SDS011;4452;50.756;4.472;2022-07-06T05:47:38;6.63;;;3.10;;
8831;SDS011;4452;50.756;4.472;2022-07-06T05:50:23;5.32;;;3.60;;
8831;SDS011;4452;50.756;4.472;2022-07-06T05:53:02;4.35;;;3.30;;
8831;SDS011;4452;50.756;4.472;2022-07-06T05:55:29;7.35;;;3.30;;
8831;SDS011;4452;50.756;4.472;2022-07-06T05:57:55;7.22;;;3.10;;
8831;SDS011;4452;50.756;4.472;2022-07-06T06:00:21;3.50;;;3.20;;
8831;SDS011;4452;50.756;4.472;2022-07-06T06:02:47;6.95;;;4.30;;
8831;SDS011;4452;50.756;4.472;2022-07-06T06:05:13;8.95;;;4.10;;
8831;SDS011;4452;50.756;4.472;2022-07-06T06:07:40;8.48;;;3.95;;
8831;SDS011;4452;50.756;4.472;2022-07-06T06:10:08;4.45;;;3.30;;
8831;SDS011;4452;50.756;4.472;2022-07-06T06:12:34;4.88;;;3.58;;
8831;SDS011;4452;50.756;4.472;2022-07-06T06:15:00;5.60;;;3.15;;
8831;SDS011;4452;50.756;4.472;2022-07-06T06:17:26;4.25;;;3.20;;
8831;SDS011;4452;50.756;4.472;2022-07-06T06:19:52;3.08;;;2.88;;
8831;SDS011;4452;50.756;4.472;2022-07-06T06:22:18;9.23;;;2.90;;
8831;SDS011;4452;50.756;4.472;2022-07-06T06:24:43;4.75;;;3.00;;
8831;SDS011;4452;50.756;4.472;2022-07-06T06:27:09;7.78;;;3.40;;
8831;SDS011;4452;50.756;4.472;2022-07-06T06:29:35;6.63;;;3.47;;
8831;SDS011;4452;50.756;4.472;2022-07-06T06:32:00;6.68;;;2.97;;
8831;SDS011;4452;50.756;4.472;2022-07-06T06:34:26;8.85;;;3.15;;
8831;SDS011;4452;50.756;4.472;2022-07-06T06:36:52;9.38;;;3.53;;
8831;SDS011;4452;50.756;4.472;2022-07-06T06:39:17;15.30;;;4.00;;
8831;SDS011;4452;50.756;4.472;2022-07-06T06:41:43;10.18;;;4.80;;
8831;SDS011;4452;50.756;4.472;2022-07-06T06:44:09;14.07;;;5.88;;
8831;SDS011;4452;50.756;4.472;2022-07-06T06:46:34;9.65;;;5.30;;
8831;SDS011;4452;50.756;4.472;2022-07-06T06:49:00;11.95;;;5.68;;
8831;SDS011;4452;50.756;4.472;2022-07-06T06:51:25;19.17;;;8.07;;
8831;SDS011;4452;50.756;4.472;2022-07-06T06:53:51;16.65;;;6.90;;
8831;SDS011;4452;50.756;4.472;2022-07-06T06:56:17;17.17;;;7.60;;
8831;SDS011;4452;50.756;4.472;2022-07-06T06:58:43;16.23;;;7.90;;
8831;SDS011;4452;50.756;4.472;2022-07-06T07:01:08;16.00;;;7.32;;
8831;SDS011;4452;50.756;4.472;2022-07-06T07:03:34;13.27;;;5.85;;
8831;SDS011;4452;50.756;4.472;2022-07-06T07:06:00;18.33;;;6.22;;
8831;SDS011;4452;50.756;4.472;2022-07-06T07:08:26;16.05;;;6.22;;
8831;SDS011;4452;50.756;4.472;2022-07-06T07:10:51;13.90;;;5.30;;
8831;SDS011;4452;50.756;4.472;2022-07-06T07:13:17;8.23;;;4.00;;
8831;SDS011;4452;50.756;4.472;2022-07-06T07:15:43;8.23;;;4.18;;
8831;SDS011;4452;50.756;4.472;2022-07-06T07:18:08;11.95;;;4.47;;
8831;SDS011;4452;50.756;4.472;2022-07-06T07:20:34;7.78;;;4.07;;
8831;SDS011;4452;50.756;4.472;2022-07-06T07:23:00;7.50;;;3.40;;
8831;SDS011;4452;50.756;4.472;2022-07-06T07:25:26;9.63;;;3.10;;
8831;SDS011;4452;50.756;4.472;2022-07-06T07:27:52;7.53;;;2.92;;
8831;SDS011;4452;50.756;4.472;2022-07-06T07:30:18;7.10;;;2.42;;
8831;SDS011;4452;50.756;4.472;2022-07-06T07:32:44;7.53;;;2.60;;
8831;SDS011;4452;50.756;4.472;2022-07-06T07:35:09;7.07;;;2.72;;
8831;SDS011;4452;50.756;4.472;2022-07-06T07:37:35;6.95;;;2.78;;
8831;SDS011;4452;50.756;4.472;2022-07-06T07:40:01;10.60;;;2.70;;
8831;SDS011;4452;50.756;4.472;2022-07-06T07:42:27;4.65;;;2.47;;
8831;SDS011;4452;50.756;4.472;2022-07-06T07:44:53;6.05;;;2.55;;
8831;SDS011;4452;50.756;4.472;2022-07-06T07:47:18;10.60;;;2.63;;
8831;SDS011;4452;50.756;4.472;2022-07-06T07:49:44;7.38;;;2.22;;
8831;SDS011;4452;50.756;4.472;2022-07-06T07:52:10;6.10;;;2.47;;
8831;SDS011;4452;50.756;4.472;2022-07-06T07:54:36;9.45;;;2.50;;
8831;SDS011;4452;50.756;4.472;2022-07-06T07:57:01;9.30;;;2.63;;
8831;SDS011;4452;50.756;4.472;2022-07-06T07:59:27;4.90;;;2.85;;
8831;SDS011;4452;50.756;4.472;2022-07-06T08:01:53;9.23;;;3.00;;
8831;SDS011;4452;50.756;4.472;2022-07-06T08:04:19;6.80;;;2.63;;
8831;SDS011;4452;50.756;4.472;2022-07-06T08:06:45;6.07;;;2.55;;
8831;SDS011;4452;50.756;4.472;2022-07-06T08:09:11;13.35;;;2.80;;
8831;SDS011;4452;50.756;4.472;2022-07-06T08:11:37;12.60;;;3.10;;
8831;SDS011;4452;50.756;4.472;2022-07-06T08:14:03;4.70;;;2.00;;
8831;SDS011;4452;50.756;4.472;2022-07-06T08:16:29;6.82;;;2.30;;
8831;SDS011;4452;50.756;4.472;2022-07-06T08:18:55;9.10;;;2.50;;
8831;SDS011;4452;50.756;4.472;2022-07-06T08:21:21;7.30;;;2.50;;
8831;SDS011;4452;50.756;4.472;2022-07-06T08:23:47;5.15;;;2.20;;
8831;SDS011;4452;50.756;4.472;2022-07-06T08:26:13;5.90;;;2.50;;
8831;SDS011;4452;50.756;4.472;2022-07-06T08:28:38;10.40;;;2.60;;
8831;SDS011;4452;50.756;4.472;2022-07-06T08:31:04;7.68;;;2.83;;
8831;SDS011;4452;50.756;4.472;2022-07-06T08:33:29;8.45;;;2.80;;
8831;SDS011;4452;50.756;4.472;2022-07-06T08:35:55;10.98;;;3.58;;
8831;SDS011;4452;50.756;4.472;2022-07-06T08:38:21;9.52;;;3.63;;
8831;SDS011;4452;50.756;4.472;2022-07-06T08:40:47;5.82;;;2.58;;
8831;SDS011;4452;50.756;4.472;2022-07-06T08:43:15;11.65;;;2.95;;
8831;SDS011;4452;50.756;4.472;2022-07-06T08:45:41;11.75;;;3.50;;
8831;SDS011;4452;50.756;4.472;2022-07-06T08:48:09;9.82;;;3.13;;
8831;SDS011;4452;50.756;4.472;2022-07-06T08:50:36;9.25;;;3.42;;
8831;SDS011;4452;50.756;4.472;2022-07-06T08:53:02;15.27;;;3.83;;
8831;SDS011;4452;50.756;4.472;2022-07-06T08:55:28;7.53;;;2.90;;
8831;SDS011;4452;50.756;4.472;2022-07-06T08:57:54;6.53;;;3.40;;
8831;SDS011;4452;50.756;4.472;2022-07-06T09:00:22;5.65;;;3.00;;
8831;SDS011;4452;50.756;4.472;2022-07-06T09:02:49;9.82;;;3.95;;
8831;SDS011;4452;50.756;4.472;2022-07-06T09:05:16;6.90;;;3.60;;
8831;SDS011;4452;50.756;4.472;2022-07-06T09:07:43;5.30;;;3.42;;
8831;SDS011;4452;50.756;4.472;2022-07-06T09:10:13;8.43;;;3.47;;
8831;SDS011;4452;50.756;4.472;2022-07-06T09:12:42;6.57;;;3.60;;
8831;SDS011;4452;50.756;4.472;2022-07-06T09:15:07;11.35;;;3.88;;
8831;SDS011;4452;50.756;4.472;2022-07-06T09:17:37;5.72;;;3.30;;
8831;SDS011;4452;50.756;4.472;2022-07-06T09:20:04;7.55;;;3.40;;
8831;SDS011;4452;50.756;4.472;2022-07-06T09:22:35;7.50;;;3.63;;
8831;SDS011;4452;50.756;4.472;2022-07-06T09:27:44;5.38;;;2.83;;
8831;SDS011;4452;50.756;4.472;2022-07-06T09:30:13;4.65;;;3.28;;
8831;SDS011;4452;50.756;4.472;2022-07-06T09:32:40;10.05;;;3.10;;
8831;SDS011;4452;50.756;4.472;2022-07-06T09:35:08;13.48;;;3.20;;
8831;SDS011;4452;50.756;4.472;2022-07-06T09:37:43;11.18;;;3.50;;
8831;SDS011;4452;50.756;4.472;2022-07-06T09:40:18;7.75;;;3.00;;
8831;SDS011;4452;50.756;4.472;2022-07-06T09:42:44;8.38;;;3.53;;
8831;SDS011;4452;50.756;4.472;2022-07-06T09:45:10;5.97;;;2.75;;
8831;SDS011;4452;50.756;4.472;2022-07-06T09:47:36;9.15;;;3.50;;
8831;SDS011;4452;50.756;4.472;2022-07-06T09:50:04;11.70;;;3.35;;
8831;SDS011;4452;50.756;4.472;2022-07-06T09:52:33;8.63;;;4.25;;
8831;SDS011;4452;50.756;4.472;2022-07-06T09:54:59;11.65;;;3.25;;
8831;SDS011;4452;50.756;4.472;2022-07-06T09:57:25;8.70;;;3.28;;
8831;SDS011;4452;50.756;4.472;2022-07-06T09:59:53;7.43;;;3.00;;
8831;SDS011;4452;50.756;4.472;2022-07-06T10:02:19;14.25;;;3.40;;
8831;SDS011;4452;50.756;4.472;2022-07-06T10:04:47;4.72;;;2.85;;
8831;SDS011;4452;50.756;4.472;2022-07-06T10:07:14;8.10;;;2.95;;
8831;SDS011;4452;50.756;4.472;2022-07-06T10:09:40;9.02;;;3.25;;
8831;SDS011;4452;50.756;4.472;2022-07-06T10:12:07;7.28;;;3.13;;
8831;SDS011;4452;50.756;4.472;2022-07-06T10:14:37;5.00;;;2.50;;
8831;SDS011;4452;50.756;4.472;2022-07-06T10:17:04;9.80;;;3.15;;
8831;SDS011;4452;50.756;4.472;2022-07-06T10:19:31;4.85;;;2.90;;
8831;SDS011;4452;50.756;4.472;2022-07-06T10:21:58;5.95;;;2.80;;
8831;SDS011;4452;50.756;4.472;2022-07-06T10:24:25;4.43;;;2.83;;
8831;SDS011;4452;50.756;4.472;2022-07-06T10:26:52;9.10;;;3.20;;
8831;SDS011;4452;50.756;4.472;2022-07-06T10:29:18;5.72;;;2.83;;
8831;SDS011;4452;50.756;4.472;2022-07-06T10:31:44;10.45;;;3.13;;
8831;SDS011;4452;50.756;4.472;2022-07-06T10:34:12;14.25;;;3.15;;
8831;SDS011;4452;50.756;4.472;2022-07-06T10:36:41;6.93;;;2.78;;
8831;SDS011;4452;50.756;4.472;2022-07-06T10:39:09;6.20;;;3.30;;
8831;SDS011;4452;50.756;4.472;2022-07-06T10:41:54;8.35;;;3.20;;
8831;SDS011;4452;50.756;4.472;2022-07-06T10:44:22;7.95;;;2.90;;
8831;SDS011;4452;50.756;4.472;2022-07-06T10:46:53;6.65;;;3.25;;
8831;SDS011;4452;50.756;4.472;2022-07-06T10:49:20;9.88;;;3.05;;
8831;SDS011;4452;50.756;4.472;2022-07-06T10:51:46;7.50;;;3.25;;
8831;SDS011;4452;50.756;4.472;2022-07-06T10:54:12;10.27;;;3.17;;
8831;SDS011;4452;50.756;4.472;2022-07-06T10:56:40;6.97;;;3.08;;
8831;SDS011;4452;50.756;4.472;2022-07-06T10:59:09;6.97;;;3.40;;
8831;SDS011;4452;50.756;4.472;2022-07-06T11:01:38;11.55;;;3.72;;
8831;SDS011;4452;50.756;4.472;2022-07-06T11:04:05;12.48;;;4.18;;
8831;SDS011;4452;50.756;4.472;2022-07-06T11:06:33;9.10;;;3.65;;
8831;SDS011;4452;50.756;4.472;2022-07-06T11:14:03;7.25;;;3.63;;
8831;SDS011;4452;50.756;4.472;2022-07-06T11:16:37;6.22;;;3.35;;
8831;SDS011;4452;50.756;4.472;2022-07-06T11:19:04;7.38;;;3.40;;
8831;SDS011;4452;50.756;4.472;2022-07-06T11:24:04;6.78;;;3.20;;
8831;SDS011;4452;50.756;4.472;2022-07-06T11:26:34;8.15;;;3.28;;
8831;SDS011;4452;50.756;4.472;2022-07-06T11:29:02;8.95;;;3.45;;
8831;SDS011;4452;50.756;4.472;2022-07-06T11:31:30;6.40;;;3.03;;
8831;SDS011;4452;50.756;4.472;2022-07-06T11:33:58;4.93;;;2.75;;
8831;SDS011;4452;50.756;4.472;2022-07-06T11:36:24;5.93;;;3.00;;
8831;SDS011;4452;50.756;4.472;2022-07-06T11:38:50;4.68;;;3.05;;
8831;SDS011;4452;50.756;4.472;2022-07-06T11:41:16;4.40;;;2.60;;
8831;SDS011;4452;50.756;4.472;2022-07-06T11:43:43;5.63;;;2.42;;
8831;SDS011;4452;50.756;4.472;2022-07-06T11:48:56;5.03;;;2.08;;
8831;SDS011;4452;50.756;4.472;2022-07-06T11:51:31;4.88;;;2.15;;
8831;SDS011;4452;50.756;4.472;2022-07-06T11:53:58;12.50;;;2.25;;
8831;SDS011;4452;50.756;4.472;2022-07-06T11:56:26;6.22;;;2.70;;
8831;SDS011;4452;50.756;4.472;2022-07-06T11:58:54;5.38;;;2.20;;
8831;SDS011;4452;50.756;4.472;2022-07-06T12:01:24;4.82;;;2.30;;
8831;SDS011;4452;50.756;4.472;2022-07-06T12:03:52;4.57;;;2.55;;
8831;SDS011;4452;50.756;4.472;2022-07-06T12:06:24;7.00;;;2.28;;
8831;SDS011;4452;50.756;4.472;2022-07-06T12:11:29;8.30;;;2.30;;
8831;SDS011;4452;50.756;4.472;2022-07-06T12:14:19;5.35;;;2.67;;
8831;SDS011;4452;50.756;4.472;2022-07-06T12:16:49;4.63;;;2.15;;
8831;SDS011;4452;50.756;4.472;2022-07-06T12:19:16;8.82;;;2.33;;
8831;SDS011;4452;50.756;4.472;2022-07-06T12:21:46;6.75;;;2.40;;
8831;SDS011;4452;50.756;4.472;2022-07-06T12:24:20;4.57;;;2.42;;
8831;SDS011;4452;50.756;4.472;2022-07-06T12:26:47;3.10;;;2.03;;
8831;SDS011;4452;50.756;4.472;2022-07-06T12:29:14;6.63;;;2.08;;
8831;SDS011;4452;50.756;4.472;2022-07-06T12:31:41;4.65;;;2.20;;
8831;SDS011;4452;50.756;4.472;2022-07-06T12:34:24;6.65;;;2.47;;
8831;SDS011;4452;50.756;4.472;2022-07-06T12:37:03;15.98;;;3.03;;
8831;SDS011;4452;50.756;4.472;2022-07-06T12:39:32;6.00;;;2.65;;
8831;SDS011;4452;50.756;4.472;2022-07-06T12:42:05;4.88;;;2.20;;
8831;SDS011;4452;50.756;4.472;2022-07-06T12:44:31;8.13;;;2.88;;
8831;SDS011;4452;50.756;4.472;2022-07-06T12:47:04;5.53;;;2.38;;
8831;SDS011;4452;50.756;4.472;2022-07-06T12:49:31;6.50;;;2.10;;
8831;SDS011;4452;50.756;4.472;2022-07-06T12:54:41;7.05;;;1.90;;
8831;SDS011;4452;50.756;4.472;2022-07-06T12:57:18;4.88;;;1.90;;
8831;SDS011;4452;50.756;4.472;2022-07-06T12:59:47;5.90;;;2.38;;
8831;SDS011;4452;50.756;4.472;2022-07-06T13:02:20;5.53;;;2.33;;
8831;SDS011;4452;50.756;4.472;2022-07-06T13:05:00;4.70;;;2.03;;
8831;SDS011;4452;50.756;4.472;2022-07-06T13:07:37;7.10;;;2.10;;
8831;SDS011;4452;50.756;4.472;2022-07-06T13:10:08;7.82;;;2.00;;
8831;SDS011;4452;50.756;4.472;2022-07-06T13:12:36;3.28;;;1.92;;
8831;SDS011;4452;50.756;4.472;2022-07-06T13:15:03;8.77;;;2.50;;
8831;SDS011;4452;50.756;4.472;2022-07-06T13:17:29;3.45;;;2.10;;
8831;SDS011;4452;50.756;4.472;2022-07-06T13:19:55;4.78;;;1.80;;
8831;SDS011;4452;50.756;4.472;2022-07-06T13:22:21;8.25;;;1.90;;
8831;SDS011;4452;50.756;4.472;2022-07-06T13:24:46;7.25;;;2.13;;
8831;SDS011;4452;50.756;4.472;2022-07-06T13:27:12;2.95;;;1.85;;
8831;SDS011;4452;50.756;4.472;2022-07-06T13:29:38;3.35;;;2.17;;
8831;SDS011;4452;50.756;4.472;2022-07-06T13:32:04;2.00;;;1.80;;
8831;SDS011;4452;50.756;4.472;2022-07-06T13:34:31;3.45;;;1.95;;
8831;SDS011;4452;50.756;4.472;2022-07-06T13:36:56;4.80;;;2.50;;
8831;SDS011;4452;50.756;4.472;2022-07-06T13:39:22;6.85;;;2.53;;
8831;SDS011;4452;50.756;4.472;2022-07-06T13:41:48;7.63;;;2.45;;
8831;SDS011;4452;50.756;4.472;2022-07-06T13:44:14;7.25;;;2.72;;
8831;SDS011;4452;50.756;4.472;2022-07-06T13:46:41;4.18;;;2.50;;
8831;SDS011;4452;50.756;4.472;2022-07-06T13:49:09;3.75;;;2.58;;
8831;SDS011;4452;50.756;4.472;2022-07-06T13:51:35;6.30;;;3.03;;
8831;SDS011;4452;50.756;4.472;2022-07-06T13:54:01;8.10;;;2.63;;
8831;SDS011;4452;50.756;4.472;2022-07-06T13:56:27;4.82;;;2.70;;
8831;SDS011;4452;50.756;4.472;2022-07-06T13:58:53;6.40;;;2.50;;
8831;SDS011;4452;50.756;4.472;2022-07-06T14:01:19;6.38;;;2.60;;
8831;SDS011;4452;50.756;4.472;2022-07-06T14:03:45;4.80;;;2.75;;
8831;SDS011;4452;50.756;4.472;2022-07-06T14:06:11;5.82;;;2.70;;
8831;SDS011;4452;50.756;4.472;2022-07-06T14:08:38;6.45;;;2.63;;
8831;SDS011;4452;50.756;4.472;2022-07-06T14:11:05;5.20;;;2.42;;
8831;SDS011;4452;50.756;4.472;2022-07-06T14:13:32;6.20;;;2.20;;
8831;SDS011;4452;50.756;4.472;2022-07-06T14:15:58;5.40;;;2.20;;
8831;SDS011;4452;50.756;4.472;2022-07-06T14:18:24;8.10;;;2.50;;
8831;SDS011;4452;50.756;4.472;2022-07-06T14:20:50;4.22;;;2.33;;
8831;SDS011;4452;50.756;4.472;2022-07-06T14:23:17;4.25;;;2.08;;
8831;SDS011;4452;50.756;4.472;2022-07-06T14:25:43;2.55;;;1.88;;
8831;SDS011;4452;50.756;4.472;2022-07-06T14:28:09;3.45;;;1.90;;
8831;SDS011;4452;50.756;4.472;2022-07-06T14:30:36;3.17;;;2.20;;
8831;SDS011;4452;50.756;4.472;2022-07-06T14:33:03;6.10;;;2.30;;
8831;SDS011;4452;50.756;4.472;2022-07-06T14:35:32;9.93;;;2.20;;
8831;SDS011;4452;50.756;4.472;2022-07-06T14:38:02;5.32;;;2.50;;
8831;SDS011;4452;50.756;4.472;2022-07-06T14:40:28;6.85;;;3.40;;
8831;SDS011;4452;50.756;4.472;2022-07-06T14:42:55;5.75;;;2.80;;
8831;SDS011;4452;50.756;4.472;2022-07-06T14:45:22;4.63;;;2.00;;
8831;SDS011;4452;50.756;4.472;2022-07-06T14:47:47;1.98;;;1.80;;
8831;SDS011;4452;50.756;4.472;2022-07-06T14:50:13;4.82;;;2.15;;
8831;SDS011;4452;50.756;4.472;2022-07-06T14:52:39;2.30;;;1.95;;
8831;SDS011;4452;50.756;4.472;2022-07-06T14:55:05;7.85;;;2.33;;
8831;SDS011;4452;50.756;4.472;2022-07-06T14:57:31;4.32;;;1.83;;
8831;SDS011;4452;50.756;4.472;2022-07-06T14:59:57;8.85;;;2.08;;
8831;SDS011;4452;50.756;4.472;2022-07-06T15:02:22;2.20;;;1.92;;
8831;SDS011;4452;50.756;4.472;2022-07-06T15:04:48;2.28;;;2.05;;
8831;SDS011;4452;50.756;4.472;2022-07-06T15:07:14;3.25;;;2.08;;
8831;SDS011;4452;50.756;4.472;2022-07-06T15:09:40;4.90;;;2.00;;
8831;SDS011;4452;50.756;4.472;2022-07-06T15:12:06;4.13;;;2.13;;
8831;SDS011;4452;50.756;4.472;2022-07-06T15:14:32;6.57;;;2.10;;
8831;SDS011;4452;50.756;4.472;2022-07-06T15:16:57;4.53;;;2.20;;
8831;SDS011;4452;50.756;4.472;2022-07-06T15:19:24;2.50;;;1.85;;
8831;SDS011;4452;50.756;4.472;2022-07-06T15:21:50;6.90;;;2.15;;
8831;SDS011;4452;50.756;4.472;2022-07-06T15:24:16;2.25;;;1.70;;
8831;SDS011;4452;50.756;4.472;2022-07-06T15:26:42;5.90;;;2.30;;
8831;SDS011;4452;50.756;4.472;2022-07-06T15:29:08;5.63;;;2.22;;
8831;SDS011;4452;50.756;4.472;2022-07-06T15:31:33;3.03;;;2.10;;